This is the latest recevied weather packets stored in our database for station/object VA7NEZ. If no packets are shown the sender has not sent any weather packets the latest 1 day(s).
| Time | Temp. | Humidity | Pressure | Rain* | Wind** | Luminosity | Snow |
|---|---|---|---|---|---|---|---|
| 1778025702 | 32.78° C | 18% | 1010.4 hPa | 0 mm | 0.89 m/s, 326° | - | - |
| 1778025167 | 30.56° C | 20% | 1010.5 hPa | 0 mm | 0 m/s | - | - |
| 1778024678 | 29.44° C | 20% | 1010.5 hPa | 0 mm | 0 m/s | - | - |
| 1778024192 | 30° C | 20% | 1010.7 hPa | 0 mm | 0.89 m/s, 311° | - | - |
| 1778023594 | 31.67° C | 18% | 1010.8 hPa | 0 mm | 0.89 m/s, 284° | - | - |
| 1778023022 | 37.22° C | 14% | 1010.8 hPa | 0 mm | 0.89 m/s, 302° | - | - |
| 1778021937 | 29.44° C | 20% | 1011.1 hPa | 0 mm | 0 m/s | - | - |
| 1778021416 | 28.89° C | 20% | 1011.1 hPa | 0 mm | 0.89 m/s, 284° | - | - |
| 1778020917 | 28.89° C | 19% | 1011.3 hPa | 0 mm | 0.89 m/s, 271° | - | - |
| 1778020377 | 30.56° C | 18% | 1011.4 hPa | 0 mm | 0.89 m/s, 265° | - | - |
| 1778019795 | 38.33° C | 13% | 1011.4 hPa | 0 mm | 0.89 m/s, 297° | - | - |
| 1778018712 | 35.56° C | 15% | 1011.7 hPa | 0 mm | 0.45 m/s, 277° | - | - |
| 1778017667 | 26.11° C | 22% | 1011.9 hPa | 0 mm | 0.45 m/s, 294° | - | - |
| 1778017181 | 26.11° C | 22% | 1012 hPa | 0 mm | 0.89 m/s, 297° | - | - |
| 1778016027 | 25° C | 22% | 1012.3 hPa | 0 mm | 0.89 m/s, 280° | - | - |
| 1778015467 | 25° C | 23% | 1012.5 hPa | 0 mm | 0 m/s | - | - |
| 1778014971 | 24.44° C | 24% | 1012.5 hPa | 0 mm | 0.89 m/s, 312° | - | - |
| 1778014382 | 23.89° C | 24% | 1012.9 hPa | 0 mm | 0.89 m/s, 298° | - | - |
| 1778013799 | 0° C | 100% | 1013 hPa | 0 mm | 0.89 m/s, 284° | - | - |
| 1778013272 | 23.89° C | 29% | 1013.1 hPa | 0 mm | 0 m/s | - | - |
| 1778011622 | 22.78° C | 29% | 1013.4 hPa | 0 mm | 0 m/s | - | - |
| 1778010022 | 21.67° C | 30% | 1013.8 hPa | 0 mm | 0.89 m/s, 299° | - | - |
| 1778009423 | 21.67° C | 31% | 1013.8 hPa | 0 mm | 0.45 m/s, 284° | - | - |
| 1778008927 | 21.67° C | 30% | 1014 hPa | 0 mm | 0 m/s | - | - |
| 1778008397 | 21.67° C | 31% | 1013.9 hPa | 0 mm | 0 m/s | - | - |
* Rain latest hour (hover to see other rain measurements)
** Current wind speed in m/s (hover to see current wind gust speed)